createdAt,value
2023-05-10T00:00:49.528Z,99435.75
2023-05-10T00:03:16.841Z,99433.75
2023-05-10T00:05:45.264Z,99440.09
2023-05-10T00:08:12.602Z,99440.91
2023-05-10T00:10:40.022Z,99435.84
2023-05-10T00:13:06.998Z,99435.53
2023-05-10T00:15:35.632Z,99433.31
2023-05-10T00:18:03.149Z,99436.78
2023-05-10T00:20:30.726Z,99435.25
2023-05-10T00:22:57.765Z,99437.19
2023-05-10T00:25:25.136Z,99434.16
2023-05-10T00:27:53.040Z,99431.66
2023-05-10T00:30:20.442Z,99434.59
2023-05-10T00:32:49.174Z,99432.44
2023-05-10T00:35:16.958Z,99433.47
2023-05-10T00:37:44.045Z,99431.19
2023-05-10T00:40:11.938Z,99430.88
2023-05-10T00:42:39.001Z,99423.91
2023-05-10T00:45:08.224Z,99432.03
2023-05-10T00:47:36.442Z,99432.97
2023-05-10T00:50:03.985Z,99427.28
2023-05-10T00:52:31.597Z,99426.75
2023-05-10T00:54:59.416Z,99425.91
2023-05-10T00:57:26.563Z,99434.34
2023-05-10T00:59:53.633Z,99428.38
2023-05-10T01:02:20.976Z,99427.75
2023-05-10T01:04:48.385Z,99421.06
2023-05-10T01:07:15.469Z,99425.34
2023-05-10T01:09:43.761Z,99423.66
2023-05-10T01:12:12.586Z,99424.56
2023-05-10T01:14:40.232Z,99419.28
2023-05-10T01:17:10.290Z,99420.44
2023-05-10T01:19:39.053Z,99423.94
2023-05-10T01:22:08.818Z,99422.00
2023-05-10T01:24:45.566Z,99425.72
2023-05-10T01:27:33.710Z,99421.31
2023-05-10T01:30:15.532Z,99417.16
2023-05-10T01:33:01.829Z,99416.19
2023-05-10T01:35:42.064Z,99421.44
2023-05-10T01:38:26.804Z,99417.13
2023-05-10T01:40:57.166Z,99415.38
2023-05-10T01:43:29.243Z,99419.03
2023-05-10T01:46:11.214Z,99417.88
2023-05-10T01:48:55.634Z,99416.56
2023-05-10T01:51:25.011Z,99415.75
2023-05-10T01:54:01.751Z,99419.34
2023-05-10T01:56:31.820Z,99414.97
2023-05-10T01:59:01.205Z,99411.72
2023-05-10T02:01:28.970Z,99411.91
2023-05-10T02:03:57.939Z,99408.09
2023-05-10T02:06:26.263Z,99399.94
2023-05-10T02:08:54.830Z,99402.34
2023-05-10T02:11:24.048Z,99398.16
2023-05-10T02:13:54.430Z,99401.22
2023-05-10T02:16:27.445Z,99398.66
2023-05-10T02:18:57.788Z,99393.53
2023-05-10T02:21:27.016Z,99388.47
2023-05-10T02:23:56.237Z,99387.03
2023-05-10T02:26:26.031Z,99383.66
2023-05-10T02:28:54.647Z,99391.06
2023-05-10T02:31:23.338Z,99378.28
2023-05-10T02:33:52.133Z,99382.78
2023-05-10T02:36:21.139Z,99381.16
2023-05-10T02:38:50.753Z,99380.59
2023-05-10T02:41:20.547Z,99388.97
2023-05-10T02:43:52.321Z,99395.03
2023-05-10T02:46:20.099Z,99386.63
2023-05-10T02:48:47.800Z,99388.09
2023-05-10T02:51:18.638Z,99384.56
2023-05-10T02:53:49.286Z,99386.31
2023-05-10T02:56:29.817Z,99385.72
2023-05-10T02:58:57.287Z,99382.53
2023-05-10T03:01:24.866Z,99374.84
2023-05-10T03:03:51.982Z,99382.47
2023-05-10T03:06:19.410Z,99385.50
2023-05-10T03:08:46.730Z,99379.16
2023-05-10T03:11:13.945Z,99386.38
2023-05-10T03:13:44.813Z,99384.63
2023-05-10T03:16:28.388Z,99385.81
2023-05-10T03:19:02.862Z,99381.47
2023-05-10T03:21:31.215Z,99384.56
2023-05-10T03:24:19.498Z,99376.87
2023-05-10T03:26:49.619Z,99370.91
2023-05-10T03:29:18.636Z,99386.34
2023-05-10T03:31:46.493Z,99382.91
2023-05-10T03:34:14.721Z,99385.66
2023-05-10T03:36:42.275Z,99378.72
2023-05-10T03:39:11.135Z,99389.06
2023-05-10T03:41:38.304Z,99385.75
2023-05-10T03:44:05.616Z,99389.47
2023-05-10T03:46:32.759Z,99385.75
2023-05-10T03:49:00.491Z,99378.84
2023-05-10T03:51:29.148Z,99387.38
2023-05-10T03:53:56.683Z,99386.44
2023-05-10T03:56:24.183Z,99381.41
2023-05-10T03:58:51.766Z,99377.50
2023-05-10T04:01:18.863Z,99378.31
2023-05-10T04:03:47.380Z,99382.09
2023-05-10T04:06:14.898Z,99376.03
2023-05-10T04:08:42.070Z,99381.84
2023-05-10T04:11:10.931Z,99378.22
2023-05-10T04:13:39.462Z,99381.06
2023-05-10T04:16:06.876Z,99376.91
2023-05-10T04:18:34.240Z,99376.97
2023-05-10T04:21:01.541Z,99378.81
2023-05-10T04:23:28.914Z,99384.06
2023-05-10T04:26:03.141Z,99384.41
2023-05-10T04:28:30.191Z,99390.13
2023-05-10T04:31:04.664Z,99388.41
2023-05-10T04:33:31.922Z,99392.97
2023-05-10T04:35:59.930Z,99396.53
2023-05-10T04:38:27.945Z,99395.50
2023-05-10T04:40:55.636Z,99394.44
2023-05-10T04:43:23.020Z,99389.59
2023-05-10T04:45:51.240Z,99397.69
2023-05-10T04:48:18.437Z,99388.06
2023-05-10T04:50:45.820Z,99394.50
2023-05-10T04:53:14.636Z,99392.78
2023-05-10T04:55:43.199Z,99390.69
2023-05-10T04:58:10.565Z,99389.25
2023-05-10T05:00:37.842Z,99397.56
2023-05-10T05:03:05.057Z,99392.50
2023-05-10T05:05:47.145Z,99392.81
2023-05-10T05:08:22.728Z,99393.47
2023-05-10T05:10:51.225Z,99396.88
2023-05-10T05:13:18.513Z,99399.47
2023-05-10T05:15:45.599Z,99406.53
2023-05-10T05:18:13.672Z,99399.47
2023-05-10T05:20:40.878Z,99397.50
2023-05-10T05:23:07.871Z,99392.03
2023-05-10T05:25:35.218Z,99396.38
2023-05-10T05:28:02.618Z,99402.69
2023-05-10T05:30:29.862Z,99402.41
2023-05-10T05:32:57.785Z,99408.84
2023-05-10T05:35:25.136Z,99403.19
2023-05-10T05:37:52.151Z,99404.31
2023-05-10T05:40:19.814Z,99406.50
2023-05-10T05:42:46.914Z,99408.41
2023-05-10T05:45:14.343Z,99402.56
2023-05-10T05:47:42.175Z,99412.25
2023-05-10T05:50:09.765Z,99402.59
2023-05-10T05:52:37.158Z,99410.00
2023-05-10T05:55:04.828Z,99411.22
2023-05-10T05:57:32.101Z,99408.53
2023-05-10T05:59:59.314Z,99410.59
2023-05-10T06:02:26.824Z,99412.13
2023-05-10T06:04:54.332Z,99413.94
2023-05-10T06:07:21.457Z,99421.00
2023-05-10T06:09:48.541Z,99416.91
2023-05-10T06:12:15.920Z,99415.31
2023-05-10T06:14:42.999Z,99416.06
2023-05-10T06:17:10.135Z,99411.81
2023-05-10T06:19:37.829Z,99411.53
2023-05-10T06:22:04.912Z,99415.53
2023-05-10T06:24:31.953Z,99412.06
2023-05-10T06:27:01.147Z,99423.44
2023-05-10T06:29:28.163Z,99427.69
2023-05-10T06:31:55.495Z,99425.88
2023-05-10T06:34:22.935Z,99430.72
2023-05-10T06:36:50.016Z,99431.94
2023-05-10T06:39:17.189Z,99425.81
2023-05-10T06:41:44.577Z,99427.28
2023-05-10T06:44:11.661Z,99435.47
2023-05-10T06:46:38.835Z,99436.31
2023-05-10T06:49:06.249Z,99433.84
2023-05-10T06:51:33.875Z,99434.06
2023-05-10T06:54:01.212Z,99432.06
2023-05-10T06:56:28.825Z,99430.59
2023-05-10T06:58:56.828Z,99422.25
2023-05-10T07:01:23.988Z,99423.72
2023-05-10T07:15:55.334Z,99419.78
2023-05-10T07:18:22.842Z,99421.75
2023-05-10T07:20:50.002Z,99411.81
2023-05-10T07:23:18.825Z,99411.69
2023-05-10T07:25:47.641Z,99413.03
2023-05-10T07:28:16.343Z,99410.19
2023-05-10T07:30:43.817Z,99407.47
2023-05-10T07:33:13.668Z,99416.59
2023-05-10T07:35:40.830Z,99413.94
2023-05-10T07:38:07.937Z,99411.75
2023-05-10T07:40:35.314Z,99411.34
2023-05-10T07:43:03.182Z,99402.47
2023-05-10T07:45:30.377Z,99411.78
2023-05-10T07:47:57.868Z,99409.13
2023-05-10T07:50:24.986Z,99413.81
2023-05-10T07:52:52.823Z,99412.47
2023-05-10T07:55:22.149Z,99420.31
2023-05-10T07:57:49.223Z,99413.81
2023-05-10T08:00:20.997Z,99408.66
2023-05-10T08:02:49.066Z,99407.34
2023-05-10T08:05:16.686Z,99404.97
2023-05-10T08:07:44.005Z,99410.19
2023-05-10T08:10:14.358Z,99413.06
2023-05-10T08:12:41.489Z,99413.31
2023-05-10T08:15:09.796Z,99410.94
2023-05-10T08:17:37.229Z,99407.00
2023-05-10T08:20:04.637Z,99411.22
2023-05-10T08:22:31.855Z,99413.87
2023-05-10T08:24:59.244Z,99425.47
2023-05-10T08:27:26.390Z,99415.22
2023-05-10T08:29:53.476Z,99422.16
2023-05-10T08:32:20.898Z,99415.97
2023-05-10T08:34:48.041Z,99411.88
2023-05-10T08:37:15.155Z,99415.78
2023-05-10T08:39:42.559Z,99410.12
2023-05-10T08:42:10.362Z,99403.81
2023-05-10T08:44:37.994Z,99410.34
2023-05-10T08:47:09.902Z,99402.84
2023-05-10T08:49:38.552Z,99403.88
2023-05-10T08:52:08.460Z,99407.72
2023-05-10T08:54:35.706Z,99404.50
2023-05-10T08:57:03.002Z,99401.06
2023-05-10T08:59:31.129Z,99395.50
2023-05-10T09:02:02.100Z,99398.41
2023-05-10T09:04:30.492Z,99398.13
2023-05-10T09:06:58.440Z,99405.56
2023-05-10T09:09:26.768Z,99409.06
2023-05-10T09:11:54.869Z,99406.75
2023-05-10T09:14:25.907Z,99403.53
2023-05-10T09:16:54.996Z,99394.06
2023-05-10T09:19:22.388Z,99392.09
2023-05-10T09:21:50.404Z,99398.34
2023-05-10T09:24:17.585Z,99392.03
2023-05-10T09:26:52.302Z,99400.53
2023-05-10T09:29:19.544Z,99406.28
2023-05-10T09:31:51.980Z,99399.78
2023-05-10T09:34:21.473Z,99390.00
2023-05-10T09:36:57.293Z,99389.75
2023-05-10T09:39:40.041Z,99391.06
2023-05-10T09:42:11.394Z,99390.34
2023-05-10T09:44:39.352Z,99389.38
2023-05-10T09:47:06.430Z,99390.06
2023-05-10T09:49:34.266Z,99390.03
2023-05-10T09:52:05.497Z,99385.94
2023-05-10T09:54:33.865Z,99385.47
2023-05-10T09:57:01.754Z,99388.94
2023-05-10T09:59:29.561Z,99378.84
2023-05-10T10:02:01.184Z,99371.81
2023-05-10T10:04:29.208Z,99374.22
2023-05-10T10:07:06.199Z,99375.81
2023-05-10T10:09:35.363Z,99365.12
2023-05-10T10:12:03.745Z,99369.13
2023-05-10T10:14:31.093Z,99367.16
2023-05-10T10:19:34.541Z,99360.50
2023-05-10T10:22:02.158Z,99373.84
2023-05-10T10:24:29.290Z,99363.56
2023-05-10T10:27:03.211Z,99358.84
2023-05-10T10:29:52.918Z,99365.06
2023-05-10T10:32:48.294Z,99357.12
2023-05-10T10:35:17.026Z,99367.44
2023-05-10T10:37:46.253Z,99362.50
2023-05-10T10:40:34.877Z,99363.16
2023-05-10T10:43:27.754Z,99349.12
2023-05-10T10:46:17.905Z,99351.34
2023-05-10T10:48:50.774Z,99353.25
2023-05-10T10:51:17.954Z,99343.63
2023-05-10T10:53:45.883Z,99342.12
2023-05-10T10:56:16.170Z,99334.75
2023-05-10T10:58:54.744Z,99331.13
2023-05-10T11:01:22.286Z,99337.94
2023-05-10T11:04:01.567Z,99335.72
2023-05-10T11:06:33.536Z,99329.97
2023-05-10T11:09:06.789Z,99323.41
2023-05-10T11:11:36.162Z,99317.81
2023-05-10T11:14:08.118Z,99313.56
2023-05-10T11:16:44.042Z,99317.19
2023-05-10T11:19:18.581Z,99318.06
2023-05-10T11:22:14.031Z,99323.63
2023-05-10T11:24:41.220Z,99308.44
2023-05-10T11:27:08.991Z,99306.50
2023-05-10T11:29:36.112Z,99307.37
2023-05-10T11:32:05.457Z,99305.38
2023-05-10T11:34:35.953Z,99301.47
2023-05-10T11:37:03.184Z,99304.12
2023-05-10T11:39:32.048Z,99305.53
2023-05-10T11:42:00.212Z,99311.25
2023-05-10T11:44:33.683Z,99304.66
2023-05-10T11:47:01.737Z,99303.59
2023-05-10T11:49:29.338Z,99301.91
2023-05-10T11:52:09.871Z,99306.00
2023-05-10T11:54:38.107Z,99300.31
2023-05-10T11:57:05.373Z,99296.47
2023-05-10T11:59:32.502Z,99293.97
2023-05-10T12:02:00.227Z,99290.75
2023-05-10T12:04:30.431Z,99289.53
2023-05-10T12:06:57.882Z,99299.66
2023-05-10T12:09:39.570Z,99300.13
2023-05-10T12:12:10.915Z,99300.00
2023-05-10T12:14:38.194Z,99293.91
2023-05-10T12:17:05.543Z,99300.28
2023-05-10T12:19:40.268Z,99309.44
2023-05-10T12:22:07.545Z,99296.19
2023-05-10T12:24:36.612Z,99294.34
2023-05-10T12:27:09.454Z,99287.50
2023-05-10T12:29:37.162Z,99289.84
2023-05-10T12:32:04.252Z,99289.00
2023-05-10T12:34:33.985Z,99280.19
2023-05-10T12:37:01.878Z,99274.50
2023-05-10T12:39:43.965Z,99277.97
2023-05-10T12:42:11.973Z,99276.75
2023-05-10T12:44:39.761Z,99268.34
2023-05-10T12:47:07.077Z,99271.88
2023-05-10T12:49:34.979Z,99268.31
2023-05-10T12:52:02.313Z,99261.22
2023-05-10T12:54:29.411Z,99259.53
2023-05-10T12:56:56.732Z,99256.47
2023-05-10T12:59:23.979Z,99263.56
2023-05-10T13:01:51.164Z,99255.34
2023-05-10T13:04:18.548Z,99254.63
2023-05-10T13:06:45.548Z,99253.78
2023-05-10T13:09:14.125Z,99246.97
2023-05-10T13:11:41.482Z,99249.94
2023-05-10T13:14:08.462Z,99238.91
2023-05-10T13:16:35.625Z,99239.31
2023-05-10T13:19:03.031Z,99235.28
2023-05-10T13:21:30.074Z,99230.09
2023-05-10T13:23:57.043Z,99236.69
2023-05-10T13:26:24.380Z,99230.59
2023-05-10T13:28:52.880Z,99218.56
2023-05-10T13:31:20.104Z,99219.06
2023-05-10T13:33:47.552Z,99213.91
2023-05-10T13:36:14.597Z,99213.75
2023-05-10T13:38:41.574Z,99218.13
2023-05-10T13:41:08.902Z,99208.47
2023-05-10T13:43:37.018Z,99209.06
2023-05-10T13:46:04.117Z,99215.09
2023-05-10T13:48:31.430Z,99217.09
2023-05-10T13:50:58.405Z,99203.31
2023-05-10T13:53:25.572Z,99202.78
2023-05-10T13:55:52.849Z,99201.72
2023-05-10T13:58:20.251Z,99194.53
2023-05-10T14:00:47.318Z,99199.09
2023-05-10T14:03:14.743Z,99208.31
2023-05-10T14:05:41.955Z,99196.22
2023-05-10T14:08:10.399Z,99200.59
2023-05-10T14:10:38.014Z,99203.22
2023-05-10T14:13:05.036Z,99190.12
2023-05-10T14:15:31.990Z,99195.81
2023-05-10T14:17:59.448Z,99197.91
2023-05-10T14:20:26.987Z,99191.06
2023-05-10T14:22:54.019Z,99197.72
2023-05-10T14:25:21.352Z,99190.94
2023-05-10T14:27:48.865Z,99192.47
2023-05-10T14:30:16.031Z,99183.63
2023-05-10T14:32:43.703Z,99175.91
2023-05-10T14:35:13.649Z,99178.03
2023-05-10T14:37:41.527Z,99172.47
2023-05-10T14:40:10.296Z,99171.44
2023-05-10T14:42:37.356Z,99176.34
2023-05-10T14:45:05.157Z,99177.53
2023-05-10T14:47:32.451Z,99170.87
2023-05-10T14:49:59.531Z,99177.00
2023-05-10T14:52:26.752Z,99176.84
2023-05-10T14:54:54.636Z,99176.75
2023-05-10T14:57:21.693Z,99172.16
2023-05-10T14:59:49.048Z,99171.34
2023-05-10T15:02:17.262Z,99176.97
2023-05-10T15:04:44.857Z,99175.12
2023-05-10T15:07:15.346Z,99169.91
2023-05-10T15:09:42.787Z,99167.81
2023-05-10T15:12:09.840Z,99166.34
2023-05-10T15:14:37.657Z,99159.31
2023-05-10T15:17:08.463Z,99158.56
2023-05-10T15:19:35.551Z,99163.09
2023-05-10T15:22:03.257Z,99162.37
2023-05-10T15:24:30.727Z,99157.91
2023-05-10T15:26:58.174Z,99158.03
2023-05-10T15:29:25.349Z,99165.63
2023-05-10T15:31:53.050Z,99162.94
2023-05-10T15:34:20.257Z,99161.34
2023-05-10T15:36:47.401Z,99167.03
2023-05-10T15:39:14.784Z,99167.00
2023-05-10T15:41:42.031Z,99164.25
2023-05-10T15:44:09.133Z,99167.56
2023-05-10T15:46:38.924Z,99164.97
2023-05-10T15:49:06.797Z,99172.13
2023-05-10T15:51:35.393Z,99168.50
2023-05-10T15:54:07.564Z,99165.72
2023-05-10T15:56:36.074Z,99163.37
2023-05-10T15:59:03.967Z,99171.25
2023-05-10T16:01:32.379Z,99166.34
2023-05-10T16:04:00.689Z,99172.72
2023-05-10T16:06:27.962Z,99163.03
2023-05-10T16:08:55.059Z,99167.69
2023-05-10T16:11:22.708Z,99166.84
2023-05-10T16:13:49.860Z,99176.28
2023-05-10T16:16:17.132Z,99170.63
2023-05-10T16:18:44.752Z,99164.97
2023-05-10T16:21:11.986Z,99170.41
2023-05-10T16:23:39.721Z,99167.72
2023-05-10T16:26:07.544Z,99167.06
2023-05-10T16:28:35.210Z,99171.03
2023-05-10T16:31:02.387Z,99166.78
2023-05-10T16:33:29.780Z,99166.94
2023-05-10T16:35:56.813Z,99167.56
2023-05-10T16:38:23.907Z,99174.72
2023-05-10T16:40:51.303Z,99169.50
2023-05-10T16:43:19.274Z,99171.78
2023-05-10T16:45:46.430Z,99172.63
2023-05-10T16:48:13.985Z,99177.00
2023-05-10T16:50:46.434Z,99171.25
2023-05-10T16:53:14.076Z,99175.50
2023-05-10T16:55:41.379Z,99174.78
2023-05-10T16:58:08.454Z,99179.13
2023-05-10T17:00:37.461Z,99178.72
2023-05-10T17:03:04.653Z,99186.88
2023-05-10T17:05:31.941Z,99184.22
2023-05-10T17:07:59.382Z,99181.94
2023-05-10T17:10:26.494Z,99182.22
2023-05-10T17:12:53.778Z,99183.22
2023-05-10T17:15:21.714Z,99195.03
2023-05-10T17:17:48.923Z,99195.19
2023-05-10T17:20:16.593Z,99199.06
2023-05-10T17:22:43.953Z,99194.69
2023-05-10T17:25:11.134Z,99197.62
2023-05-10T17:27:38.289Z,99200.91
2023-05-10T17:30:06.519Z,99195.50
2023-05-10T17:32:34.020Z,99195.53
2023-05-10T17:35:01.220Z,99197.59
2023-05-10T17:37:28.652Z,99201.97
2023-05-10T17:39:55.710Z,99206.25
2023-05-10T17:42:22.779Z,99199.34
2023-05-10T17:44:50.161Z,99207.28
2023-05-10T17:47:18.018Z,99206.81
2023-05-10T17:49:45.098Z,99212.16
2023-05-10T17:52:12.513Z,99209.75
2023-05-10T17:54:39.641Z,99209.81
2023-05-10T17:57:06.763Z,99217.94
2023-05-10T17:59:34.106Z,99219.66
2023-05-10T18:02:01.817Z,99225.41
2023-05-10T18:04:29.293Z,99227.94
2023-05-10T18:07:01.559Z,99229.03
2023-05-10T18:09:29.412Z,99224.47
2023-05-10T18:11:56.496Z,99231.84
2023-05-10T18:14:38.980Z,99230.53
2023-05-10T18:17:09.530Z,99233.44
2023-05-10T18:19:36.856Z,99229.94
2023-05-10T18:22:04.319Z,99241.09
2023-05-10T18:27:02.188Z,99233.19
2023-05-10T18:29:31.643Z,99238.75
2023-05-10T18:31:59.093Z,99240.31
2023-05-10T18:34:26.370Z,99239.41
2023-05-10T18:36:53.483Z,99250.19
2023-05-10T18:39:21.031Z,99255.25
2023-05-10T18:41:48.260Z,99262.59
2023-05-10T18:44:15.513Z,99259.41
2023-05-10T18:46:43.059Z,99260.47
2023-05-10T18:49:10.270Z,99261.31
2023-05-10T18:51:37.367Z,99261.69
2023-05-10T18:54:04.748Z,99262.75
2023-05-10T18:56:31.844Z,99273.22
2023-05-10T18:58:58.914Z,99269.31
2023-05-10T19:01:26.336Z,99271.88
2023-05-10T19:03:53.442Z,99272.41
2023-05-10T19:06:20.833Z,99277.94
2023-05-10T19:08:48.232Z,99275.84
2023-05-10T19:11:15.705Z,99280.31
2023-05-10T19:13:42.895Z,99277.87
2023-05-10T19:16:15.976Z,99282.03
2023-05-10T19:18:44.149Z,99280.47
2023-05-10T19:21:15.244Z,99279.19
2023-05-10T19:23:43.848Z,99278.44
2023-05-10T19:26:11.766Z,99280.69
2023-05-10T19:28:39.554Z,99282.94
2023-05-10T19:31:08.745Z,99276.66
2023-05-10T19:33:36.462Z,99280.19
2023-05-10T19:36:04.353Z,99285.84
2023-05-10T19:38:31.568Z,99288.31
2023-05-10T19:40:59.357Z,99289.28
2023-05-10T19:43:28.350Z,99287.25
2023-05-10T19:45:59.124Z,99287.56
2023-05-10T19:48:27.202Z,99283.31
2023-05-10T19:50:59.203Z,99282.66
2023-05-10T19:53:27.813Z,99283.97
2023-05-10T19:55:55.837Z,99275.03
2023-05-10T19:58:23.484Z,99286.06
2023-05-10T20:00:50.838Z,99281.94
2023-05-10T20:03:18.141Z,99282.03
2023-05-10T20:05:45.122Z,99276.53
2023-05-10T20:08:12.217Z,99276.94
2023-05-10T20:10:39.569Z,99284.19
2023-05-10T20:13:06.547Z,99286.50
2023-05-10T20:15:34.261Z,99282.69
2023-05-10T20:18:03.525Z,99288.94
2023-05-10T20:20:30.678Z,99283.56
2023-05-10T20:22:57.665Z,99283.13
2023-05-10T20:25:25.149Z,99286.41
2023-05-10T20:27:52.326Z,99281.09
2023-05-10T20:30:19.775Z,99287.56
2023-05-10T20:32:47.458Z,99287.47
2023-05-10T20:35:14.556Z,99288.84
2023-05-10T20:37:41.588Z,99286.63
2023-05-10T20:40:09.433Z,99294.81
2023-05-10T20:42:36.500Z,99282.16
2023-05-10T20:45:03.720Z,99284.19
2023-05-10T20:47:31.039Z,99282.81
2023-05-10T20:49:58.106Z,99286.31
2023-05-10T20:52:25.070Z,99283.56
2023-05-10T20:54:52.455Z,99283.00
2023-05-10T20:57:20.039Z,99286.63
2023-05-10T20:59:47.068Z,99287.81
2023-05-10T21:02:14.337Z,99287.47
2023-05-10T21:04:41.827Z,99281.62
2023-05-10T21:07:08.871Z,99286.84
2023-05-10T21:09:36.184Z,99285.66
2023-05-10T21:12:03.479Z,99281.75
2023-05-10T21:14:33.312Z,99277.56
2023-05-10T21:17:00.667Z,99273.00
2023-05-10T21:19:28.206Z,99276.28
2023-05-10T21:21:57.098Z,99277.66
2023-05-10T21:24:24.701Z,99273.84
2023-05-10T21:26:52.107Z,99273.75
2023-05-10T21:29:19.094Z,99273.62
2023-05-10T21:31:46.433Z,99277.97
2023-05-10T21:34:14.119Z,99286.53
2023-05-10T21:36:41.129Z,99284.00
2023-05-10T21:39:08.441Z,99276.91
2023-05-10T21:41:35.858Z,99274.78
2023-05-10T21:44:03.535Z,99276.87
2023-05-10T21:46:31.024Z,99276.69
2023-05-10T21:48:58.098Z,99283.81
2023-05-10T21:51:25.087Z,99286.03
2023-05-10T21:53:52.937Z,99286.03
2023-05-10T21:56:19.943Z,99285.94
2023-05-10T21:58:47.259Z,99282.63
2023-05-10T22:01:17.068Z,99284.66
2023-05-10T22:03:44.771Z,99291.59
2023-05-10T22:06:11.901Z,99294.34
2023-05-10T22:08:38.947Z,99289.78
2023-05-10T22:11:06.213Z,99297.41
2023-05-10T22:13:33.231Z,99295.94
2023-05-10T22:16:00.612Z,99299.34
2023-05-10T22:18:28.019Z,99295.09
2023-05-10T22:20:55.027Z,99302.22
2023-05-10T22:23:22.017Z,99299.78
2023-05-10T22:25:49.431Z,99297.97
2023-05-10T22:28:16.417Z,99291.59
2023-05-10T22:30:43.575Z,99296.50
2023-05-10T22:33:10.853Z,99300.53
2023-05-10T22:35:37.969Z,99295.00
2023-05-10T22:38:05.178Z,99293.94
2023-05-10T22:40:32.708Z,99295.00
2023-05-10T22:42:59.700Z,99298.81
2023-05-10T22:45:27.166Z,99293.31
2023-05-10T22:47:54.601Z,99296.06
2023-05-10T22:50:21.771Z,99304.88
2023-05-10T22:52:48.759Z,99292.47
2023-05-10T22:55:16.248Z,99298.31
2023-05-10T22:57:43.304Z,99305.97
2023-05-10T23:00:10.905Z,99309.03
2023-05-10T23:02:38.249Z,99303.28
2023-05-10T23:05:07.061Z,99300.22
2023-05-10T23:07:34.347Z,99305.06
2023-05-10T23:10:02.137Z,99314.16
2023-05-10T23:12:31.254Z,99313.59
2023-05-10T23:14:58.251Z,99308.37
2023-05-10T23:17:25.655Z,99310.19
2023-05-10T23:19:52.669Z,99304.81
2023-05-10T23:22:19.659Z,99310.62
2023-05-10T23:24:47.010Z,99303.19
2023-05-10T23:27:14.729Z,99309.88
2023-05-10T23:29:41.958Z,99306.56
2023-05-10T23:32:09.358Z,99312.81
2023-05-10T23:34:36.446Z,99302.84
2023-05-10T23:37:03.508Z,99309.72
2023-05-10T23:39:30.843Z,99307.69
2023-05-10T23:41:57.851Z,99308.25
2023-05-10T23:44:24.826Z,99301.34
2023-05-10T23:46:52.103Z,99308.63
2023-05-10T23:49:19.488Z,99307.78
2023-05-10T23:51:46.819Z,99314.22
2023-05-10T23:54:14.153Z,99312.09
2023-05-10T23:56:41.202Z,99318.81
2023-05-10T23:59:08.303Z,99318.56
